createdAt,value
2018-12-10T00:00:04.039Z,0.00
2018-12-10T00:01:03.877Z,0.00
2018-12-10T00:02:03.847Z,0.00
2018-12-10T00:03:03.829Z,0.00
2018-12-10T00:04:03.811Z,0.00
2018-12-10T00:05:03.821Z,0.00
2018-12-10T00:06:03.814Z,0.00
2018-12-10T00:07:03.794Z,0.00
2018-12-10T00:08:03.779Z,0.00
2018-12-10T00:09:03.764Z,0.00
2018-12-10T00:10:03.753Z,0.00
2018-12-10T00:11:03.871Z,0.00
2018-12-10T00:12:03.756Z,0.00
2018-12-10T00:13:03.713Z,0.00
2018-12-10T00:14:03.714Z,0.00
2018-12-10T00:15:03.764Z,0.00
2018-12-10T00:16:03.716Z,0.00
2018-12-10T00:17:03.685Z,0.00
2018-12-10T00:18:03.664Z,0.00
2018-12-10T00:19:03.784Z,0.00
2018-12-10T00:20:03.639Z,0.00
2018-12-10T00:21:03.667Z,0.00
2018-12-10T00:22:03.625Z,0.00
2018-12-10T00:23:03.616Z,0.00
2018-12-10T00:24:03.604Z,0.00
2018-12-10T00:25:03.596Z,0.00
2018-12-10T00:26:03.614Z,0.00
2018-12-10T00:27:03.580Z,0.00
2018-12-10T00:28:03.568Z,0.00
2018-12-10T00:29:03.555Z,0.00
2018-12-10T00:30:03.582Z,0.00
2018-12-10T00:31:03.558Z,0.00
2018-12-10T00:32:03.526Z,0.00
2018-12-10T00:33:03.501Z,0.00
2018-12-10T00:34:03.549Z,0.00
2018-12-10T00:35:03.479Z,0.00
2018-12-10T00:36:03.502Z,0.00
2018-12-10T00:37:03.463Z,0.00
2018-12-10T00:38:03.459Z,0.00
2018-12-10T00:39:03.458Z,0.00
2018-12-10T00:40:03.443Z,0.00
2018-12-10T00:41:03.448Z,0.00
2018-12-10T00:42:03.428Z,0.00
2018-12-10T00:43:03.405Z,0.00
2018-12-10T00:44:03.392Z,0.00
2018-12-10T00:45:03.377Z,0.00
2018-12-10T00:46:03.385Z,0.00
2018-12-10T00:47:03.903Z,0.00
2018-12-10T00:48:03.345Z,0.00
2018-12-10T00:49:03.328Z,0.00
2018-12-10T00:50:03.333Z,0.00
2018-12-10T00:51:03.338Z,0.00
2018-12-10T00:52:03.315Z,0.00
2018-12-10T00:53:03.291Z,0.00
2018-12-10T00:54:03.286Z,0.00
2018-12-10T00:55:03.372Z,0.00
2018-12-10T00:56:03.275Z,0.00
2018-12-10T00:57:03.250Z,0.00
2018-12-10T00:58:03.244Z,0.00
2018-12-10T00:59:03.230Z,0.00
2018-12-10T01:00:03.268Z,0.00
2018-12-10T01:01:03.242Z,0.00
2018-12-10T01:02:03.205Z,0.00
2018-12-10T01:03:03.198Z,0.00
2018-12-10T01:04:03.177Z,0.00
2018-12-10T01:05:03.174Z,0.00
2018-12-10T01:06:03.180Z,0.00
2018-12-10T01:07:03.147Z,0.00
2018-12-10T01:08:03.129Z,0.00
2018-12-10T01:09:03.114Z,0.00
2018-12-10T01:10:03.116Z,0.00
2018-12-10T01:11:03.124Z,0.00
2018-12-10T01:12:03.105Z,0.00
2018-12-10T01:13:03.092Z,0.00
2018-12-10T01:14:03.079Z,0.00
2018-12-10T01:15:03.069Z,0.00
2018-12-10T01:16:03.064Z,0.00
2018-12-10T01:17:03.033Z,0.00
2018-12-10T01:18:03.035Z,0.00
2018-12-10T01:19:03.023Z,0.00
2018-12-10T01:20:03.001Z,0.00
2018-12-10T01:21:02.991Z,0.00
2018-12-10T01:22:03.009Z,0.00
2018-12-10T01:23:02.980Z,0.00
2018-12-10T01:24:02.965Z,0.00
2018-12-10T01:25:02.970Z,0.00
2018-12-10T01:26:02.945Z,0.00
2018-12-10T01:27:02.950Z,0.00
2018-12-10T01:28:02.921Z,0.00
2018-12-10T01:29:02.914Z,0.00
2018-12-10T01:30:02.998Z,0.00
2018-12-10T01:31:02.903Z,0.00
2018-12-10T01:32:02.894Z,0.00
2018-12-10T01:33:02.862Z,0.00
2018-12-10T01:34:02.863Z,0.00
2018-12-10T01:35:52.067Z,0.00
2018-12-10T01:36:53.052Z,0.00
2018-12-10T01:37:53.061Z,0.00
2018-12-10T01:38:53.029Z,0.00
2018-12-10T01:39:53.007Z,0.00
2018-12-10T01:40:53.005Z,0.00
2018-12-10T01:41:53.023Z,0.00
2018-12-10T01:42:53.011Z,0.00
2018-12-10T01:43:52.981Z,0.00
2018-12-10T01:44:52.955Z,0.00
2018-12-10T01:45:52.953Z,0.00
2018-12-10T01:46:52.939Z,0.00
2018-12-10T01:47:52.926Z,0.00
2018-12-10T01:48:52.943Z,0.00
2018-12-10T01:49:52.910Z,0.00
2018-12-10T01:50:52.903Z,0.00
2018-12-10T01:51:52.884Z,0.00
2018-12-10T01:52:52.868Z,0.00
2018-12-10T01:53:52.878Z,0.00
2018-12-10T01:54:52.858Z,0.00
2018-12-10T01:55:52.841Z,0.00
2018-12-10T01:56:52.830Z,0.00
2018-12-10T01:57:52.824Z,0.00
2018-12-10T01:58:52.833Z,0.00
2018-12-10T01:59:52.801Z,0.00
2018-12-10T02:00:52.791Z,0.00
2018-12-10T02:01:52.783Z,0.00
2018-12-10T02:02:52.764Z,0.00
2018-12-10T02:03:52.774Z,0.00
2018-12-10T02:04:52.742Z,0.00
2018-12-10T02:05:52.726Z,0.00
2018-12-10T02:06:52.716Z,0.00
2018-12-10T02:07:52.716Z,0.00
2018-12-10T02:08:52.712Z,0.00
2018-12-10T02:09:52.691Z,0.00
2018-12-10T02:10:52.679Z,0.00
2018-12-10T02:11:52.670Z,0.00
2018-12-10T02:12:52.656Z,0.00
2018-12-10T02:13:52.676Z,0.00
2018-12-10T02:14:52.634Z,0.00
2018-12-10T02:15:52.619Z,0.00
2018-12-10T02:16:52.619Z,0.00
2018-12-10T02:17:52.615Z,0.00
2018-12-10T02:18:52.615Z,0.00
2018-12-10T02:19:52.596Z,0.00
2018-12-10T02:20:52.566Z,0.00
2018-12-10T02:21:52.562Z,0.00
2018-12-10T02:22:52.550Z,0.00
2018-12-10T02:23:52.557Z,0.00
2018-12-10T02:24:52.534Z,0.00
2018-12-10T02:25:52.510Z,0.00
2018-12-10T02:26:52.506Z,0.00
2018-12-10T02:27:52.496Z,0.00
2018-12-10T02:28:52.512Z,0.00
2018-12-10T02:29:52.478Z,0.00
2018-12-10T02:30:52.461Z,0.00
2018-12-10T02:31:52.447Z,0.00
2018-12-10T02:32:52.440Z,0.00
2018-12-10T02:33:52.448Z,0.00
2018-12-10T02:34:52.425Z,0.00
2018-12-10T02:35:52.413Z,0.00
2018-12-10T02:36:52.394Z,0.00
2018-12-10T02:37:52.384Z,0.00
2018-12-10T02:38:52.399Z,0.00
2018-12-10T02:39:52.376Z,0.00
2018-12-10T02:40:52.354Z,0.00
2018-12-10T02:41:52.339Z,0.00
2018-12-10T02:42:52.325Z,0.00
2018-12-10T02:43:52.331Z,0.00
2018-12-10T02:44:52.317Z,0.00
2018-12-10T02:45:52.323Z,0.00
2018-12-10T02:46:52.349Z,0.00
2018-12-10T02:47:52.272Z,0.00
2018-12-10T02:48:52.285Z,0.00
2018-12-10T02:49:52.258Z,0.00
2018-12-10T02:50:52.248Z,0.00
2018-12-10T02:51:52.248Z,0.00
2018-12-10T02:52:52.221Z,0.00
2018-12-10T02:53:52.225Z,0.00
2018-12-10T02:54:52.223Z,0.00
2018-12-10T02:55:52.207Z,0.00
2018-12-10T02:56:52.198Z,0.00
2018-12-10T02:57:52.179Z,0.00
2018-12-10T02:58:52.181Z,0.00
2018-12-10T02:59:52.155Z,0.00
2018-12-10T03:00:52.300Z,0.00
2018-12-10T03:01:52.127Z,0.00
2018-12-10T03:02:52.125Z,0.00
2018-12-10T03:03:52.849Z,0.00
2018-12-10T03:04:52.100Z,0.00
2018-12-10T03:05:52.075Z,0.00
2018-12-10T03:06:52.085Z,0.00
2018-12-10T03:07:52.084Z,0.00
2018-12-10T03:08:52.079Z,0.00
2018-12-10T03:09:52.109Z,0.00
2018-12-10T03:10:52.023Z,0.00
2018-12-10T03:11:52.019Z,0.00
2018-12-10T03:12:52.019Z,0.00
2018-12-10T03:13:52.010Z,0.00
2018-12-10T03:14:51.998Z,0.00
2018-12-10T03:15:51.972Z,0.00
2018-12-10T03:16:51.966Z,0.00
2018-12-10T03:17:51.955Z,0.00
2018-12-10T03:18:51.941Z,0.00
2018-12-10T03:19:51.950Z,0.00
2018-12-10T03:20:52.908Z,0.00
2018-12-10T03:21:51.921Z,0.00
2018-12-10T03:22:51.909Z,0.00
2018-12-10T03:23:51.885Z,0.00
2018-12-10T03:24:51.903Z,0.00
2018-12-10T03:25:51.875Z,0.00
2018-12-10T03:26:51.850Z,0.00
2018-12-10T03:27:51.870Z,0.00
2018-12-10T03:28:51.829Z,0.00
2018-12-10T03:29:51.854Z,0.00
2018-12-10T03:30:51.824Z,0.00
2018-12-10T03:31:51.804Z,0.00
2018-12-10T03:32:51.831Z,0.00
2018-12-10T03:33:51.786Z,0.00
2018-12-10T03:34:51.783Z,0.00
2018-12-10T03:37:00.952Z,0.00
2018-12-10T03:38:01.952Z,0.00
2018-12-10T03:39:01.933Z,0.00
2018-12-10T03:40:01.958Z,0.00
2018-12-10T03:41:01.919Z,0.00
2018-12-10T03:42:01.907Z,0.00
2018-12-10T03:43:01.892Z,0.00
2018-12-10T03:44:01.888Z,0.00
2018-12-10T03:45:01.894Z,0.00
2018-12-10T03:46:01.859Z,0.00
2018-12-10T03:47:01.856Z,0.00
2018-12-10T03:48:01.837Z,0.00
2018-12-10T03:49:01.822Z,0.00
2018-12-10T03:50:01.833Z,0.00
2018-12-10T03:51:01.806Z,0.00
2018-12-10T03:52:01.809Z,0.00
2018-12-10T03:53:01.774Z,0.00
2018-12-10T03:54:01.768Z,0.00
2018-12-10T03:55:01.805Z,0.00
2018-12-10T03:56:01.764Z,0.00
2018-12-10T03:57:01.742Z,0.00
2018-12-10T03:58:01.720Z,0.00
2018-12-10T03:59:01.717Z,0.00
2018-12-10T04:00:01.805Z,0.00
2018-12-10T04:01:01.705Z,0.00
2018-12-10T04:02:01.692Z,0.00
2018-12-10T04:03:01.671Z,0.00
2018-12-10T04:04:01.675Z,0.00
2018-12-10T04:05:01.688Z,0.00
2018-12-10T04:06:01.655Z,0.00
2018-12-10T04:07:01.638Z,0.00
2018-12-10T04:08:01.626Z,0.00
2018-12-10T04:09:01.640Z,0.00
2018-12-10T04:10:01.623Z,0.00
2018-12-10T04:11:01.588Z,0.00
2018-12-10T04:12:01.579Z,0.00
2018-12-10T04:13:01.572Z,0.00
2018-12-10T04:14:01.559Z,0.00
2018-12-10T04:15:01.576Z,0.00
2018-12-10T04:16:01.539Z,0.00
2018-12-10T04:17:01.517Z,0.00
2018-12-10T04:18:01.521Z,0.00
2018-12-10T04:19:01.507Z,0.00
2018-12-10T04:20:01.513Z,0.00
2018-12-10T04:21:01.483Z,0.00
2018-12-10T04:22:01.477Z,0.00
2018-12-10T04:23:01.462Z,0.00
2018-12-10T04:24:01.441Z,0.00
2018-12-10T04:25:01.469Z,0.00
2018-12-10T04:26:01.451Z,0.00
2018-12-10T04:27:01.418Z,0.00
2018-12-10T04:28:01.416Z,0.00
2018-12-10T04:29:01.398Z,0.00
2018-12-10T04:30:01.470Z,0.00
2018-12-10T04:31:01.378Z,0.00
2018-12-10T04:32:01.373Z,0.00
2018-12-10T04:33:01.359Z,0.00
2018-12-10T04:34:01.350Z,0.00
2018-12-10T04:35:01.356Z,0.00
2018-12-10T04:36:01.325Z,0.00
2018-12-10T04:37:01.322Z,0.00
2018-12-10T04:38:01.296Z,0.00
2018-12-10T04:39:01.296Z,0.00
2018-12-10T04:40:01.299Z,0.00
2018-12-10T04:41:01.269Z,0.00
2018-12-10T04:42:01.263Z,0.00
2018-12-10T04:43:01.248Z,0.00
2018-12-10T04:44:01.238Z,0.00
2018-12-10T04:45:01.247Z,0.00
2018-12-10T04:46:01.207Z,0.00
2018-12-10T04:47:01.200Z,0.00
2018-12-10T04:48:01.184Z,0.00
2018-12-10T04:49:01.180Z,0.00
2018-12-10T04:50:01.196Z,0.00
2018-12-10T04:51:01.178Z,0.00
2018-12-10T04:52:01.147Z,0.00
2018-12-10T04:53:01.140Z,0.00
2018-12-10T04:54:01.137Z,0.00
2018-12-10T04:55:01.130Z,0.00
2018-12-10T04:56:01.107Z,0.00
2018-12-10T04:57:01.095Z,0.00
2018-12-10T04:58:01.090Z,0.00
2018-12-10T04:59:01.067Z,0.00
2018-12-10T05:00:01.082Z,0.00
2018-12-10T05:01:01.063Z,0.00
2018-12-10T05:02:01.034Z,0.00
2018-12-10T05:03:01.029Z,0.00
2018-12-10T05:04:01.015Z,0.00
2018-12-10T05:05:01.021Z,0.00
2018-12-10T05:06:01.008Z,0.00
2018-12-10T05:07:00.984Z,0.00
2018-12-10T05:08:00.983Z,0.00
2018-12-10T05:09:00.972Z,0.00
2018-12-10T05:10:00.948Z,0.00
2018-12-10T05:11:00.992Z,0.00
2018-12-10T05:12:00.941Z,0.00
2018-12-10T05:13:00.932Z,0.00
2018-12-10T05:14:00.940Z,0.00
2018-12-10T05:15:00.900Z,0.00
2018-12-10T05:16:01.141Z,0.00
2018-12-10T05:17:00.884Z,0.00
2018-12-10T05:18:00.875Z,0.00
2018-12-10T05:19:00.868Z,0.00
2018-12-10T05:20:00.850Z,0.00
2018-12-10T05:21:00.839Z,0.00
2018-12-10T05:22:00.867Z,0.00
2018-12-10T05:23:00.822Z,0.00
2018-12-10T05:24:00.810Z,0.00
2018-12-10T05:25:00.799Z,0.00
2018-12-10T05:26:00.790Z,0.00
2018-12-10T05:27:01.318Z,0.00
2018-12-10T05:28:00.759Z,0.00
2018-12-10T05:29:00.753Z,0.00
2018-12-10T05:30:00.745Z,0.00
2018-12-10T05:31:00.736Z,0.00
2018-12-10T05:32:00.743Z,0.00
2018-12-10T05:33:00.727Z,0.00
2018-12-10T05:34:00.692Z,0.00
2018-12-10T05:35:00.693Z,0.00
2018-12-10T05:36:00.681Z,0.00
2018-12-10T05:38:09.896Z,0.00
2018-12-10T05:39:10.852Z,0.00
2018-12-10T05:40:10.842Z,0.00
2018-12-10T05:41:10.831Z,0.00
2018-12-10T05:42:10.808Z,0.00
2018-12-10T05:43:10.833Z,0.00
2018-12-10T05:44:10.809Z,0.00
2018-12-10T05:45:10.786Z,0.00
2018-12-10T05:46:10.765Z,0.00
2018-12-10T05:47:10.758Z,0.00
2018-12-10T05:48:10.837Z,0.00
2018-12-10T05:49:10.759Z,0.00
2018-12-10T05:50:10.725Z,0.00
2018-12-10T05:51:10.715Z,0.00
2018-12-10T05:52:10.709Z,0.00
2018-12-10T05:53:10.713Z,0.00
2018-12-10T05:54:10.692Z,0.00
2018-12-10T05:55:10.678Z,0.00
2018-12-10T05:56:10.673Z,0.00
2018-12-10T05:57:10.651Z,0.00
2018-12-10T05:58:10.679Z,0.00
2018-12-10T05:59:10.642Z,0.00
2018-12-10T06:00:10.619Z,0.00
2018-12-10T06:01:10.603Z,0.00
2018-12-10T06:02:10.596Z,0.00
2018-12-10T06:03:10.645Z,0.00
2018-12-10T06:04:10.582Z,0.00
2018-12-10T06:05:10.566Z,0.00
2018-12-10T06:06:10.554Z,0.00
2018-12-10T06:07:10.542Z,0.00
2018-12-10T06:08:10.695Z,0.00
2018-12-10T06:09:10.534Z,0.00
2018-12-10T06:10:10.520Z,0.00
2018-12-10T06:11:10.502Z,0.00
2018-12-10T06:12:10.504Z,0.00
2018-12-10T06:13:10.507Z,0.00
2018-12-10T06:14:10.474Z,0.00
2018-12-10T06:15:10.466Z,0.00
2018-12-10T06:16:10.463Z,0.00
2018-12-10T06:17:10.445Z,0.00
2018-12-10T06:18:10.450Z,0.00
2018-12-10T06:19:10.422Z,0.00
2018-12-10T06:20:10.398Z,0.00
2018-12-10T06:21:10.424Z,0.00
2018-12-10T06:22:10.378Z,0.00
2018-12-10T06:23:10.403Z,0.00
2018-12-10T06:24:10.385Z,0.00
2018-12-10T06:25:10.358Z,0.00
2018-12-10T06:26:10.366Z,0.00
2018-12-10T06:27:10.338Z,0.00
2018-12-10T06:28:10.347Z,0.00
2018-12-10T06:29:10.312Z,0.00
2018-12-10T06:30:10.302Z,0.00
2018-12-10T06:31:10.286Z,0.00
2018-12-10T06:32:10.286Z,0.00
2018-12-10T06:33:10.287Z,0.00
2018-12-10T06:34:10.264Z,0.00
2018-12-10T06:35:10.250Z,0.00
2018-12-10T06:36:10.241Z,0.00
2018-12-10T06:37:10.231Z,0.00
2018-12-10T06:38:10.236Z,0.00
2018-12-10T06:39:10.228Z,0.00
2018-12-10T06:40:10.199Z,0.00
2018-12-10T06:41:10.201Z,0.00
2018-12-10T06:42:10.187Z,0.00
2018-12-10T06:43:11.130Z,0.00
2018-12-10T06:44:10.170Z,0.00
2018-12-10T06:45:10.146Z,0.00
2018-12-10T06:46:10.136Z,0.00
2018-12-10T06:47:10.114Z,0.00
2018-12-10T06:48:10.102Z,0.00
2018-12-10T06:49:10.133Z,0.00
2018-12-10T06:50:10.079Z,0.00
2018-12-10T06:51:10.149Z,0.00
2018-12-10T06:52:10.067Z,0.00
2018-12-10T06:53:10.048Z,0.00
2018-12-10T06:54:10.071Z,0.00
2018-12-10T06:55:10.032Z,0.00
2018-12-10T06:56:10.053Z,0.00
2018-12-10T06:57:10.115Z,0.00
2018-12-10T06:58:10.001Z,0.00
2018-12-10T06:59:09.994Z,0.00
2018-12-10T07:00:09.977Z,0.00
2018-12-10T07:01:10.605Z,0.00
2018-12-10T07:02:10.216Z,0.00
2018-12-10T07:03:09.947Z,0.00
2018-12-10T07:04:09.935Z,0.00
2018-12-10T07:05:09.927Z,0.00
2018-12-10T07:06:09.919Z,0.00
2018-12-10T07:07:09.899Z,0.00
2018-12-10T07:08:09.890Z,0.00
2018-12-10T07:09:09.887Z,5.62
2018-12-10T07:10:09.891Z,5.62
2018-12-10T07:11:09.865Z,5.62
2018-12-10T07:12:09.884Z,5.62
2018-12-10T07:13:09.844Z,5.62
2018-12-10T07:14:09.828Z,5.62
2018-12-10T07:15:09.842Z,5.62
2018-12-10T07:16:09.802Z,5.62
2018-12-10T07:17:09.803Z,5.62
2018-12-10T07:18:09.812Z,5.62
2018-12-10T07:19:09.894Z,11.25
2018-12-10T07:20:10.779Z,11.25
2018-12-10T07:21:09.758Z,11.25
2018-12-10T07:22:09.736Z,11.25
2018-12-10T07:23:09.729Z,16.88
2018-12-10T07:24:09.719Z,16.88
2018-12-10T07:25:10.640Z,16.88
2018-12-10T07:26:09.706Z,16.88
2018-12-10T07:27:09.684Z,16.88
2018-12-10T07:28:09.679Z,16.88
2018-12-10T07:29:09.664Z,22.50
2018-12-10T07:30:09.664Z,22.50
2018-12-10T07:31:09.681Z,22.50
2018-12-10T07:32:09.634Z,28.12
2018-12-10T07:33:09.689Z,28.12
2018-12-10T07:34:09.613Z,28.12
2018-12-10T07:35:09.599Z,33.75
2018-12-10T07:36:09.622Z,33.75
2018-12-10T07:37:09.611Z,33.75
2018-12-10T07:39:18.749Z,39.38
2018-12-10T07:40:19.759Z,45.00
2018-12-10T07:41:19.766Z,45.00
2018-12-10T07:42:20.766Z,50.62
2018-12-10T07:43:19.722Z,50.62
2018-12-10T07:44:19.706Z,50.62
2018-12-10T07:45:20.576Z,56.25
2018-12-10T07:46:19.708Z,56.25
2018-12-10T07:47:19.711Z,56.25
2018-12-10T07:48:19.692Z,61.88
2018-12-10T07:49:19.650Z,61.88
2018-12-10T07:50:19.660Z,61.88
2018-12-10T07:51:19.887Z,61.88
2018-12-10T07:52:19.627Z,67.50
2018-12-10T07:53:19.603Z,67.50
2018-12-10T07:54:19.601Z,73.12
2018-12-10T07:55:19.596Z,73.12
2018-12-10T07:56:19.612Z,78.75
2018-12-10T07:57:19.594Z,84.38
2018-12-10T07:58:19.555Z,84.38
2018-12-10T07:59:19.551Z,95.62
2018-12-10T08:00:19.527Z,106.88
2018-12-10T08:01:19.550Z,118.12
2018-12-10T08:02:19.541Z,123.75
2018-12-10T08:03:19.508Z,129.38
2018-12-10T08:04:19.489Z,140.62
2018-12-10T08:05:20.491Z,157.50
2018-12-10T08:06:19.489Z,213.75
2018-12-10T08:07:19.470Z,247.50
2018-12-10T08:08:19.458Z,286.88
2018-12-10T08:09:19.434Z,298.12
2018-12-10T08:10:19.569Z,286.88
2018-12-10T08:11:19.434Z,292.50
2018-12-10T08:12:19.413Z,247.50
2018-12-10T08:13:19.399Z,286.88
2018-12-10T08:14:19.379Z,382.50
2018-12-10T08:15:19.378Z,472.50
2018-12-10T08:16:19.414Z,444.38
2018-12-10T08:17:19.469Z,551.25
2018-12-10T08:18:19.332Z,528.75
2018-12-10T08:19:19.366Z,376.88
2018-12-10T08:20:19.324Z,444.38
2018-12-10T08:21:19.326Z,500.62
2018-12-10T08:22:19.314Z,303.75
2018-12-10T08:23:19.289Z,478.12
2018-12-10T08:24:19.277Z,489.38
2018-12-10T08:25:19.270Z,421.88
2018-12-10T08:26:19.290Z,360.00
2018-12-10T08:27:19.250Z,478.12
2018-12-10T08:28:19.242Z,658.12
2018-12-10T08:29:19.239Z,669.38
2018-12-10T08:30:19.243Z,607.50
2018-12-10T08:31:19.214Z,163.12
2018-12-10T08:32:19.203Z,123.75
2018-12-10T08:33:19.190Z,106.88
2018-12-10T08:34:19.179Z,101.25
2018-12-10T08:35:19.158Z,106.88
2018-12-10T08:36:19.178Z,112.50
2018-12-10T08:37:19.151Z,118.12
2018-12-10T08:38:19.314Z,129.38
2018-12-10T08:39:19.115Z,151.88
2018-12-10T08:40:19.169Z,168.75
2018-12-10T08:41:19.123Z,191.25
2018-12-10T08:42:19.088Z,219.38
2018-12-10T08:43:19.196Z,264.38
2018-12-10T08:44:19.065Z,573.75
2018-12-10T08:45:19.052Z,601.88
2018-12-10T08:46:19.062Z,843.75
2018-12-10T08:47:19.027Z,798.75
2018-12-10T08:48:19.013Z,765.00
2018-12-10T08:49:19.006Z,770.62
2018-12-10T08:50:19.000Z,798.75
2018-12-10T08:51:19.063Z,742.50
2018-12-10T08:52:18.972Z,770.62
2018-12-10T08:53:18.956Z,781.88
2018-12-10T08:54:18.953Z,736.88
2018-12-10T08:55:18.946Z,641.25
2018-12-10T08:56:18.941Z,742.50
2018-12-10T08:57:18.949Z,393.75
2018-12-10T08:58:18.910Z,371.25
2018-12-10T08:59:18.894Z,348.75
2018-12-10T09:00:18.901Z,348.75
2018-12-10T09:01:18.883Z,348.75
2018-12-10T09:02:18.884Z,371.25
2018-12-10T09:03:18.850Z,405.00
2018-12-10T09:04:18.876Z,455.62
2018-12-10T09:05:18.830Z,534.38
2018-12-10T09:06:18.834Z,714.38
2018-12-10T09:07:18.829Z,1074.38
2018-12-10T09:08:18.817Z,961.88
2018-12-10T09:09:18.800Z,309.38
2018-12-10T09:10:18.790Z,247.50
2018-12-10T09:11:18.775Z,208.12
2018-12-10T09:12:18.776Z,196.88
2018-12-10T09:13:18.771Z,191.25
2018-12-10T09:14:18.737Z,191.25
2018-12-10T09:15:18.739Z,196.88
2018-12-10T09:16:18.717Z,213.75
2018-12-10T09:17:18.726Z,286.88
2018-12-10T09:18:18.702Z,1951.88
2018-12-10T09:19:18.689Z,1625.62
2018-12-10T09:20:18.679Z,1001.25
2018-12-10T09:21:18.671Z,686.25
2018-12-10T09:22:18.669Z,1710.00
2018-12-10T09:23:18.645Z,1867.50
2018-12-10T09:24:18.626Z,1777.50
2018-12-10T09:25:24.500Z,2233.12
2018-12-10T09:26:18.673Z,2295.00
2018-12-10T09:27:18.642Z,2143.12
2018-12-10T09:28:19.610Z,2311.88
2018-12-10T09:29:18.570Z,2283.75
2018-12-10T09:30:19.605Z,2238.75
2018-12-10T09:31:18.551Z,2199.38
2018-12-10T09:32:18.564Z,2115.00
2018-12-10T09:33:19.550Z,2070.00
2018-12-10T09:34:19.509Z,393.75
2018-12-10T09:35:18.519Z,202.50
2018-12-10T09:36:18.498Z,135.00
2018-12-10T09:37:18.512Z,84.38
2018-12-10T09:38:18.475Z,61.88
2018-12-10T09:40:28.097Z,45.00
2018-12-10T09:41:28.978Z,39.38
2018-12-10T09:42:28.993Z,45.00
2018-12-10T09:43:28.945Z,56.25
2018-12-10T09:44:28.938Z,73.12
2018-12-10T09:45:28.931Z,84.38
2018-12-10T09:46:28.920Z,95.62
2018-12-10T09:47:29.932Z,101.25
2018-12-10T09:48:28.903Z,112.50
2018-12-10T09:49:28.879Z,140.62
2018-12-10T09:50:28.885Z,196.88
2018-12-10T09:51:28.873Z,196.88
2018-12-10T09:52:28.851Z,174.38
2018-12-10T09:53:28.874Z,202.50
2018-12-10T09:54:28.868Z,236.25
2018-12-10T09:55:28.828Z,281.25
2018-12-10T09:56:28.847Z,292.50
2018-12-10T09:57:28.815Z,371.25
2018-12-10T09:58:28.815Z,894.38
2018-12-10T09:59:28.793Z,765.00
2018-12-10T10:00:28.772Z,815.62
2018-12-10T10:01:28.790Z,2385.00
2018-12-10T10:02:28.744Z,2278.12
2018-12-10T10:03:28.753Z,2244.38
2018-12-10T10:04:28.726Z,2289.38
2018-12-10T10:05:28.716Z,2255.62
2018-12-10T10:06:28.710Z,2250.00
2018-12-10T10:07:28.817Z,2300.62
2018-12-10T10:08:28.714Z,2334.38
2018-12-10T10:09:28.676Z,2407.50
2018-12-10T10:10:28.668Z,2435.62
2018-12-10T10:11:28.647Z,2446.88
2018-12-10T10:12:28.647Z,2508.75
2018-12-10T10:13:28.645Z,2491.88
2018-12-10T10:14:28.616Z,2480.62
2018-12-10T10:15:28.604Z,725.62
2018-12-10T10:16:28.603Z,568.12
2018-12-10T10:17:28.593Z,579.38
2018-12-10T10:18:28.610Z,810.00
2018-12-10T10:19:28.564Z,838.12
2018-12-10T10:20:28.559Z,1085.62
2018-12-10T10:21:28.560Z,1102.50
2018-12-10T10:22:28.524Z,1383.75
2018-12-10T10:23:28.541Z,1243.12
2018-12-10T10:24:28.504Z,2508.75
2018-12-10T10:25:28.493Z,2244.38
2018-12-10T10:26:28.530Z,961.88
2018-12-10T10:27:28.474Z,1068.75
2018-12-10T10:28:28.613Z,1035.00
2018-12-10T10:29:28.599Z,1254.38
2018-12-10T10:30:28.448Z,2221.88
2018-12-10T10:31:28.464Z,466.88
2018-12-10T10:32:28.531Z,421.88
2018-12-10T10:33:32.296Z,427.50
2018-12-10T10:34:28.577Z,354.38
2018-12-10T10:35:28.505Z,326.25
2018-12-10T10:36:28.409Z,337.50
2018-12-10T10:37:28.363Z,354.38
2018-12-10T10:38:28.362Z,180.00
2018-12-10T10:39:28.393Z,140.62
2018-12-10T10:40:28.332Z,118.12
2018-12-10T10:41:31.442Z,112.50
2018-12-10T10:42:28.326Z,106.88
2018-12-10T10:43:28.331Z,101.25
2018-12-10T10:44:28.301Z,84.38
2018-12-10T10:45:34.738Z,78.75
2018-12-10T10:46:28.310Z,84.38
2018-12-10T10:47:28.289Z,84.38
2018-12-10T10:48:28.250Z,95.62
2018-12-10T10:49:28.922Z,118.12
2018-12-10T10:50:28.246Z,135.00
2018-12-10T10:51:28.225Z,123.75
2018-12-10T10:52:33.155Z,118.12
2018-12-10T10:53:28.210Z,135.00
2018-12-10T10:54:28.203Z,146.25
2018-12-10T10:55:28.260Z,236.25
2018-12-10T10:56:28.174Z,264.38
2018-12-10T10:57:28.152Z,253.12
2018-12-10T10:58:28.138Z,191.25
2018-12-10T10:59:28.138Z,163.12
2018-12-10T11:00:28.424Z,168.75
2018-12-10T11:01:28.127Z,202.50
2018-12-10T11:02:28.172Z,303.75
2018-12-10T11:03:28.138Z,337.50
2018-12-10T11:04:28.094Z,236.25
2018-12-10T11:05:28.178Z,168.75
2018-12-10T11:06:28.062Z,151.88
2018-12-10T11:07:28.040Z,157.50
2018-12-10T11:08:28.028Z,157.50
2018-12-10T11:09:28.020Z,123.75
2018-12-10T11:10:28.010Z,106.88
2018-12-10T11:11:27.998Z,95.62
2018-12-10T11:12:27.977Z,78.75
2018-12-10T11:13:27.961Z,73.12
2018-12-10T11:14:27.954Z,84.38
2018-12-10T11:15:27.963Z,95.62
2018-12-10T11:16:27.939Z,101.25
2018-12-10T11:17:27.924Z,106.88
2018-12-10T11:18:27.953Z,146.25
2018-12-10T11:19:27.912Z,163.12
2018-12-10T11:20:27.920Z,247.50
2018-12-10T11:21:27.881Z,275.62
2018-12-10T11:22:27.875Z,208.12
2018-12-10T11:23:27.861Z,208.12
2018-12-10T11:24:27.855Z,230.62
2018-12-10T11:25:27.914Z,286.88
2018-12-10T11:26:27.857Z,292.50
2018-12-10T11:27:27.810Z,416.25
2018-12-10T11:28:27.811Z,978.75
2018-12-10T11:29:27.847Z,382.50
2018-12-10T11:30:27.798Z,303.75
2018-12-10T11:31:27.768Z,343.12
2018-12-10T11:32:27.751Z,343.12
2018-12-10T11:33:27.753Z,472.50
2018-12-10T11:34:27.745Z,444.38
2018-12-10T11:35:27.754Z,455.62
2018-12-10T11:36:27.723Z,517.50
2018-12-10T11:37:27.718Z,483.75
2018-12-10T11:38:27.691Z,455.62
2018-12-10T11:39:27.681Z,427.50
2018-12-10T11:41:36.890Z,2025.00
2018-12-10T11:42:37.844Z,2086.88
2018-12-10T11:43:37.846Z,2058.75
2018-12-10T11:44:37.911Z,2086.88
2018-12-10T11:45:37.812Z,2075.62
2018-12-10T11:46:37.847Z,1698.75
2018-12-10T11:47:37.790Z,1980.00
2018-12-10T11:48:37.792Z,1591.88
2018-12-10T11:49:37.771Z,2013.75
2018-12-10T11:50:37.762Z,2041.88
2018-12-10T11:51:37.775Z,1344.38
2018-12-10T11:52:37.747Z,2092.50
2018-12-10T11:53:37.731Z,663.75
2018-12-10T11:54:37.721Z,725.62
2018-12-10T11:55:37.755Z,860.62
2018-12-10T11:56:37.722Z,714.38
2018-12-10T11:57:37.721Z,1963.12
2018-12-10T11:58:37.686Z,1018.12
2018-12-10T11:59:37.676Z,2188.12
2018-12-10T12:00:37.717Z,2199.38
2018-12-10T12:01:37.673Z,1980.00
2018-12-10T12:02:37.675Z,2154.38
2018-12-10T12:03:37.617Z,2193.75
2018-12-10T12:04:37.616Z,894.38
2018-12-10T12:05:37.593Z,2103.75
2018-12-10T12:06:37.612Z,2193.75
2018-12-10T12:07:37.578Z,2109.38
2018-12-10T12:08:37.581Z,765.00
2018-12-10T12:09:37.561Z,360.00
2018-12-10T12:10:37.549Z,461.25
2018-12-10T12:11:37.561Z,393.75
2018-12-10T12:12:37.525Z,427.50
2018-12-10T12:13:37.526Z,528.75
2018-12-10T12:14:37.504Z,793.12
2018-12-10T12:15:37.480Z,838.12
2018-12-10T12:16:37.496Z,1074.38
2018-12-10T12:17:37.488Z,433.12
2018-12-10T12:18:37.449Z,703.12
2018-12-10T12:19:37.449Z,613.12
2018-12-10T12:20:37.435Z,1608.75
2018-12-10T12:21:37.437Z,472.50
2018-12-10T12:22:37.421Z,343.12
2018-12-10T12:23:37.543Z,241.88
2018-12-10T12:24:37.551Z,180.00
2018-12-10T12:25:37.437Z,174.38
2018-12-10T12:26:37.392Z,202.50
2018-12-10T12:27:37.363Z,241.88
2018-12-10T12:28:37.359Z,286.88
2018-12-10T12:29:37.342Z,478.12
2018-12-10T12:30:37.319Z,337.50
2018-12-10T12:31:37.347Z,371.25
2018-12-10T12:32:37.306Z,354.38
2018-12-10T12:33:37.297Z,433.12
2018-12-10T12:34:37.276Z,860.62
2018-12-10T12:35:37.269Z,500.62
2018-12-10T12:36:37.274Z,326.25
2018-12-10T12:37:37.268Z,365.62
2018-12-10T12:38:37.234Z,281.25
2018-12-10T12:39:37.216Z,331.88
2018-12-10T12:40:37.209Z,219.38
2018-12-10T12:41:37.236Z,185.62
2018-12-10T12:42:37.191Z,191.25
2018-12-10T12:43:37.184Z,202.50
2018-12-10T12:44:37.162Z,247.50
2018-12-10T12:45:37.168Z,286.88
2018-12-10T12:46:37.176Z,292.50
2018-12-10T12:47:37.140Z,331.88
2018-12-10T12:48:37.140Z,388.12
2018-12-10T12:49:37.141Z,320.62
2018-12-10T12:50:37.126Z,241.88
2018-12-10T12:51:37.114Z,202.50
2018-12-10T12:52:37.095Z,163.12
2018-12-10T12:53:37.071Z,174.38
2018-12-10T12:54:37.071Z,230.62
2018-12-10T12:55:37.062Z,253.12
2018-12-10T12:56:37.060Z,298.12
2018-12-10T12:57:37.021Z,281.25
2018-12-10T12:58:37.020Z,241.88
2018-12-10T12:59:37.007Z,208.12
2018-12-10T13:00:41.762Z,208.12
2018-12-10T13:01:36.989Z,191.25